sensor_id;sensor_type;location;lat;lon;timestamp;P1;durP1;ratioP1;P2;durP2;ratioP2
29732;SDS011;16643;43.158;25.302;2022-11-18T00:01:45;6.78;;;3.60;;
29732;SDS011;16643;43.158;25.302;2022-11-18T00:04:11;5.43;;;3.42;;
29732;SDS011;16643;43.158;25.302;2022-11-18T00:06:36;5.57;;;3.38;;
29732;SDS011;16643;43.158;25.302;2022-11-18T00:09:02;7.05;;;3.92;;
29732;SDS011;16643;43.158;25.302;2022-11-18T00:11:28;9.30;;;3.70;;
29732;SDS011;16643;43.158;25.302;2022-11-18T00:14:17;4.40;;;2.85;;
29732;SDS011;16643;43.158;25.302;2022-11-18T00:16:48;3.75;;;2.45;;
29732;SDS011;16643;43.158;25.302;2022-11-18T00:19:14;5.65;;;2.95;;
29732;SDS011;16643;43.158;25.302;2022-11-18T00:21:40;5.20;;;3.30;;
29732;SDS011;16643;43.158;25.302;2022-11-18T00:24:06;4.90;;;3.05;;
29732;SDS011;16643;43.158;25.302;2022-11-18T00:26:31;4.35;;;3.08;;
29732;SDS011;16643;43.158;25.302;2022-11-18T00:28:57;5.68;;;2.80;;
29732;SDS011;16643;43.158;25.302;2022-11-18T00:31:23;5.43;;;2.85;;
29732;SDS011;16643;43.158;25.302;2022-11-18T00:33:48;3.72;;;2.33;;
29732;SDS011;16643;43.158;25.302;2022-11-18T00:36:14;4.03;;;2.70;;
29732;SDS011;16643;43.158;25.302;2022-11-18T00:38:40;5.10;;;2.70;;
29732;SDS011;16643;43.158;25.302;2022-11-18T00:41:07;6.15;;;2.67;;
29732;SDS011;16643;43.158;25.302;2022-11-18T00:43:34;3.63;;;2.35;;
29732;SDS011;16643;43.158;25.302;2022-11-18T00:46:01;4.97;;;2.60;;
29732;SDS011;16643;43.158;25.302;2022-11-18T00:48:27;4.50;;;2.70;;
29732;SDS011;16643;43.158;25.302;2022-11-18T00:50:54;5.07;;;2.55;;
29732;SDS011;16643;43.158;25.302;2022-11-18T00:55:47;4.13;;;2.65;;
29732;SDS011;16643;43.158;25.302;2022-11-18T00:58:13;6.95;;;3.40;;
29732;SDS011;16643;43.158;25.302;2022-11-18T01:00:46;5.70;;;3.00;;
29732;SDS011;16643;43.158;25.302;2022-11-18T01:03:15;3.80;;;2.60;;
29732;SDS011;16643;43.158;25.302;2022-11-18T01:05:41;3.65;;;2.70;;
29732;SDS011;16643;43.158;25.302;2022-11-18T01:08:07;4.97;;;3.05;;
29732;SDS011;16643;43.158;25.302;2022-11-18T01:10:35;4.70;;;3.15;;
29732;SDS011;16643;43.158;25.302;2022-11-18T01:13:02;3.95;;;2.40;;
29732;SDS011;16643;43.158;25.302;2022-11-18T01:15:47;5.38;;;2.90;;
29732;SDS011;16643;43.158;25.302;2022-11-18T01:18:18;4.25;;;2.78;;
29732;SDS011;16643;43.158;25.302;2022-11-18T01:20:46;4.00;;;2.55;;
29732;SDS011;16643;43.158;25.302;2022-11-18T01:23:12;3.95;;;2.72;;
29732;SDS011;16643;43.158;25.302;2022-11-18T01:25:39;4.75;;;2.25;;
29732;SDS011;16643;43.158;25.302;2022-11-18T01:28:09;3.75;;;2.83;;
29732;SDS011;16643;43.158;25.302;2022-11-18T01:30:36;5.03;;;2.92;;
29732;SDS011;16643;43.158;25.302;2022-11-18T01:33:02;3.83;;;2.60;;
29732;SDS011;16643;43.158;25.302;2022-11-18T01:35:33;4.07;;;2.40;;
29732;SDS011;16643;43.158;25.302;2022-11-18T01:38:09;5.05;;;2.47;;
29732;SDS011;16643;43.158;25.302;2022-11-18T01:40:36;6.95;;;3.17;;
29732;SDS011;16643;43.158;25.302;2022-11-18T01:43:05;5.47;;;2.70;;
29732;SDS011;16643;43.158;25.302;2022-11-18T01:45:38;4.50;;;2.70;;
29732;SDS011;16643;43.158;25.302;2022-11-18T01:50:51;7.90;;;3.30;;
29732;SDS011;16643;43.158;25.302;2022-11-18T01:53:21;3.88;;;2.58;;
29732;SDS011;16643;43.158;25.302;2022-11-18T01:55:51;4.68;;;2.85;;
29732;SDS011;16643;43.158;25.302;2022-11-18T01:58:23;4.85;;;3.13;;
29732;SDS011;16643;43.158;25.302;2022-11-18T02:00:51;5.18;;;3.10;;
29732;SDS011;16643;43.158;25.302;2022-11-18T02:03:17;7.70;;;4.07;;
29732;SDS011;16643;43.158;25.302;2022-11-18T02:05:43;4.82;;;2.83;;
29732;SDS011;16643;43.158;25.302;2022-11-18T02:10:37;4.93;;;2.88;;
29732;SDS011;16643;43.158;25.302;2022-11-18T02:13:02;4.00;;;2.60;;
29732;SDS011;16643;43.158;25.302;2022-11-18T02:16:14;5.65;;;3.10;;
29732;SDS011;16643;43.158;25.302;2022-11-18T02:18:39;4.75;;;2.97;;
29732;SDS011;16643;43.158;25.302;2022-11-18T02:30:09;5.35;;;2.97;;
29732;SDS011;16643;43.158;25.302;2022-11-18T02:38:22;4.45;;;2.55;;
29732;SDS011;16643;43.158;25.302;2022-11-18T02:41:12;4.35;;;2.70;;
29732;SDS011;16643;43.158;25.302;2022-11-18T02:43:44;4.80;;;3.33;;
29732;SDS011;16643;43.158;25.302;2022-11-18T02:46:16;4.65;;;2.55;;
29732;SDS011;16643;43.158;25.302;2022-11-18T02:48:49;5.80;;;3.03;;
29732;SDS011;16643;43.158;25.302;2022-11-18T02:51:17;4.57;;;2.50;;
29732;SDS011;16643;43.158;25.302;2022-11-18T02:53:47;4.32;;;3.00;;
29732;SDS011;16643;43.158;25.302;2022-11-18T02:56:14;6.13;;;3.25;;
29732;SDS011;16643;43.158;25.302;2022-11-18T02:58:42;4.72;;;2.90;;
29732;SDS011;16643;43.158;25.302;2022-11-18T03:01:19;4.68;;;2.53;;
29732;SDS011;16643;43.158;25.302;2022-11-18T03:03:48;4.82;;;3.08;;
29732;SDS011;16643;43.158;25.302;2022-11-18T03:09:11;4.72;;;2.70;;
29732;SDS011;16643;43.158;25.302;2022-11-18T03:17:01;5.03;;;2.80;;
29732;SDS011;16643;43.158;25.302;2022-11-18T03:19:55;3.30;;;2.30;;
29732;SDS011;16643;43.158;25.302;2022-11-18T03:22:27;4.18;;;2.50;;
29732;SDS011;16643;43.158;25.302;2022-11-18T03:25:21;3.33;;;2.55;;
29732;SDS011;16643;43.158;25.302;2022-11-18T03:30:29;4.82;;;2.90;;
29732;SDS011;16643;43.158;25.302;2022-11-18T03:33:01;6.25;;;2.78;;
29732;SDS011;16643;43.158;25.302;2022-11-18T03:35:33;8.68;;;3.30;;
29732;SDS011;16643;43.158;25.302;2022-11-18T03:38:02;6.05;;;3.35;;
29732;SDS011;16643;43.158;25.302;2022-11-18T03:40:35;7.40;;;4.40;;
29732;SDS011;16643;43.158;25.302;2022-11-18T03:43:07;6.47;;;4.03;;
29732;SDS011;16643;43.158;25.302;2022-11-18T03:45:42;5.03;;;2.80;;
29732;SDS011;16643;43.158;25.302;2022-11-18T03:48:18;5.80;;;3.47;;
29732;SDS011;16643;43.158;25.302;2022-11-18T03:53:25;4.63;;;2.75;;
29732;SDS011;16643;43.158;25.302;2022-11-18T03:56:00;4.93;;;2.90;;
29732;SDS011;16643;43.158;25.302;2022-11-18T04:01:28;4.68;;;3.03;;
29732;SDS011;16643;43.158;25.302;2022-11-18T04:04:00;5.03;;;2.33;;
29732;SDS011;16643;43.158;25.302;2022-11-18T04:06:47;6.15;;;3.08;;
29732;SDS011;16643;43.158;25.302;2022-11-18T04:09:19;6.07;;;3.03;;
29732;SDS011;16643;43.158;25.302;2022-11-18T04:11:52;3.50;;;2.40;;
29732;SDS011;16643;43.158;25.302;2022-11-18T04:14:37;17.30;;;14.63;;
29732;SDS011;16643;43.158;25.302;2022-11-18T04:17:09;11.18;;;9.13;;
29732;SDS011;16643;43.158;25.302;2022-11-18T04:19:39;8.20;;;6.03;;
29732;SDS011;16643;43.158;25.302;2022-11-18T04:22:06;5.63;;;3.53;;
29732;SDS011;16643;43.158;25.302;2022-11-18T04:24:32;5.85;;;3.72;;
29732;SDS011;16643;43.158;25.302;2022-11-18T04:26:58;5.63;;;3.45;;
29732;SDS011;16643;43.158;25.302;2022-11-18T04:29:24;5.90;;;3.50;;
29732;SDS011;16643;43.158;25.302;2022-11-18T04:31:50;4.93;;;2.72;;
29732;SDS011;16643;43.158;25.302;2022-11-18T04:34:15;4.35;;;2.80;;
29732;SDS011;16643;43.158;25.302;2022-11-18T04:36:41;4.78;;;3.20;;
29732;SDS011;16643;43.158;25.302;2022-11-18T04:39:07;5.35;;;3.65;;
29732;SDS011;16643;43.158;25.302;2022-11-18T04:41:33;6.13;;;3.55;;
29732;SDS011;16643;43.158;25.302;2022-11-18T04:44:17;5.53;;;3.38;;
29732;SDS011;16643;43.158;25.302;2022-11-18T04:46:43;5.72;;;3.20;;
29732;SDS011;16643;43.158;25.302;2022-11-18T04:49:09;5.70;;;3.10;;
29732;SDS011;16643;43.158;25.302;2022-11-18T04:51:37;5.07;;;3.55;;
29732;SDS011;16643;43.158;25.302;2022-11-18T04:54:03;6.15;;;3.30;;
29732;SDS011;16643;43.158;25.302;2022-11-18T04:56:29;6.22;;;3.47;;
29732;SDS011;16643;43.158;25.302;2022-11-18T04:58:54;5.75;;;3.05;;
29732;SDS011;16643;43.158;25.302;2022-11-18T05:01:20;6.43;;;3.38;;
29732;SDS011;16643;43.158;25.302;2022-11-18T05:03:46;4.28;;;2.40;;
29732;SDS011;16643;43.158;25.302;2022-11-18T05:06:11;5.43;;;3.08;;
29732;SDS011;16643;43.158;25.302;2022-11-18T05:08:37;4.80;;;3.30;;
29732;SDS011;16643;43.158;25.302;2022-11-18T05:11:06;4.53;;;3.17;;
29732;SDS011;16643;43.158;25.302;2022-11-18T05:13:51;6.70;;;4.95;;
29732;SDS011;16643;43.158;25.302;2022-11-18T05:16:17;5.32;;;3.70;;
29732;SDS011;16643;43.158;25.302;2022-11-18T05:18:43;6.47;;;4.25;;
29732;SDS011;16643;43.158;25.302;2022-11-18T05:21:08;7.55;;;6.75;;
29732;SDS011;16643;43.158;25.302;2022-11-18T05:23:34;7.47;;;5.15;;
29732;SDS011;16643;43.158;25.302;2022-11-18T05:26:03;5.57;;;4.30;;
29732;SDS011;16643;43.158;25.302;2022-11-18T05:28:29;5.60;;;3.15;;
29732;SDS011;16643;43.158;25.302;2022-11-18T05:30:55;6.30;;;3.80;;
29732;SDS011;16643;43.158;25.302;2022-11-18T05:33:21;5.07;;;4.00;;
29732;SDS011;16643;43.158;25.302;2022-11-18T05:35:46;6.57;;;4.25;;
29732;SDS011;16643;43.158;25.302;2022-11-18T05:38:12;6.10;;;4.03;;
29732;SDS011;16643;43.158;25.302;2022-11-18T05:40:37;7.93;;;4.75;;
29732;SDS011;16643;43.158;25.302;2022-11-18T05:43:03;7.50;;;6.25;;
29732;SDS011;16643;43.158;25.302;2022-11-18T05:45:38;18.80;;;14.60;;
29732;SDS011;16643;43.158;25.302;2022-11-18T05:48:04;5.25;;;3.80;;
29732;SDS011;16643;43.158;25.302;2022-11-18T05:50:36;4.40;;;3.20;;
29732;SDS011;16643;43.158;25.302;2022-11-18T05:53:02;5.55;;;3.42;;
29732;SDS011;16643;43.158;25.302;2022-11-18T05:58:23;17.20;;;7.03;;
29732;SDS011;16643;43.158;25.302;2022-11-18T06:00:49;11.98;;;6.53;;
29732;SDS011;16643;43.158;25.302;2022-11-18T06:03:19;10.82;;;5.20;;
29732;SDS011;16643;43.158;25.302;2022-11-18T06:05:48;14.38;;;7.55;;
29732;SDS011;16643;43.158;25.302;2022-11-18T06:08:18;35.70;;;17.02;;
29732;SDS011;16643;43.158;25.302;2022-11-18T06:10:46;54.58;;;24.33;;
29732;SDS011;16643;43.158;25.302;2022-11-18T06:15:43;11.73;;;7.65;;
29732;SDS011;16643;43.158;25.302;2022-11-18T06:18:10;11.70;;;4.90;;
29732;SDS011;16643;43.158;25.302;2022-11-18T06:20:42;7.88;;;4.90;;
29732;SDS011;16643;43.158;25.302;2022-11-18T06:23:09;5.63;;;3.78;;
29732;SDS011;16643;43.158;25.302;2022-11-18T06:25:36;4.68;;;2.65;;
29732;SDS011;16643;43.158;25.302;2022-11-18T06:28:04;5.72;;;3.08;;
29732;SDS011;16643;43.158;25.302;2022-11-18T06:30:29;4.60;;;2.70;;
29732;SDS011;16643;43.158;25.302;2022-11-18T06:32:55;8.05;;;3.65;;
29732;SDS011;16643;43.158;25.302;2022-11-18T06:35:21;5.93;;;3.45;;
29732;SDS011;16643;43.158;25.302;2022-11-18T06:37:46;5.53;;;3.20;;
29732;SDS011;16643;43.158;25.302;2022-11-18T06:40:12;5.05;;;2.40;;
29732;SDS011;16643;43.158;25.302;2022-11-18T06:42:37;5.00;;;2.20;;
29732;SDS011;16643;43.158;25.302;2022-11-18T06:45:22;4.60;;;2.58;;
29732;SDS011;16643;43.158;25.302;2022-11-18T06:47:48;3.58;;;2.10;;
29732;SDS011;16643;43.158;25.302;2022-11-18T06:50:14;5.03;;;2.67;;
29732;SDS011;16643;43.158;25.302;2022-11-18T06:52:39;5.00;;;2.80;;
29732;SDS011;16643;43.158;25.302;2022-11-18T06:55:05;4.38;;;2.22;;
29732;SDS011;16643;43.158;25.302;2022-11-18T06:57:33;3.58;;;1.98;;
29732;SDS011;16643;43.158;25.302;2022-11-18T06:59:58;5.25;;;2.47;;
29732;SDS011;16643;43.158;25.302;2022-11-18T07:02:24;6.50;;;2.45;;
29732;SDS011;16643;43.158;25.302;2022-11-18T07:04:50;6.82;;;2.78;;
29732;SDS011;16643;43.158;25.302;2022-11-18T07:07:15;4.22;;;2.80;;
29732;SDS011;16643;43.158;25.302;2022-11-18T07:09:41;6.05;;;2.67;;
29732;SDS011;16643;43.158;25.302;2022-11-18T07:12:07;3.67;;;2.20;;
29732;SDS011;16643;43.158;25.302;2022-11-18T07:14:32;8.05;;;2.47;;
29732;SDS011;16643;43.158;25.302;2022-11-18T07:16:58;5.20;;;2.40;;
29732;SDS011;16643;43.158;25.302;2022-11-18T07:19:24;6.88;;;3.00;;
29732;SDS011;16643;43.158;25.302;2022-11-18T07:21:49;4.20;;;2.95;;
29732;SDS011;16643;43.158;25.302;2022-11-18T07:24:15;9.95;;;5.78;;
29732;SDS011;16643;43.158;25.302;2022-11-18T07:26:41;6.43;;;4.10;;
29732;SDS011;16643;43.158;25.302;2022-11-18T07:29:07;7.95;;;4.47;;
29732;SDS011;16643;43.158;25.302;2022-11-18T07:31:34;4.97;;;2.72;;
29732;SDS011;16643;43.158;25.302;2022-11-18T07:34:01;4.30;;;2.60;;
29732;SDS011;16643;43.158;25.302;2022-11-18T07:36:27;2.97;;;2.08;;
29732;SDS011;16643;43.158;25.302;2022-11-18T07:38:54;7.00;;;1.92;;
29732;SDS011;16643;43.158;25.302;2022-11-18T07:41:23;4.35;;;2.40;;
29732;SDS011;16643;43.158;25.302;2022-11-18T07:43:53;3.97;;;2.08;;
29732;SDS011;16643;43.158;25.302;2022-11-18T07:46:23;3.17;;;1.83;;
29732;SDS011;16643;43.158;25.302;2022-11-18T07:48:51;3.15;;;2.00;;
29732;SDS011;16643;43.158;25.302;2022-11-18T07:51:19;3.65;;;1.75;;
29732;SDS011;16643;43.158;25.302;2022-11-18T07:53:46;4.10;;;1.90;;
29732;SDS011;16643;43.158;25.302;2022-11-18T07:56:12;7.30;;;2.63;;
29732;SDS011;16643;43.158;25.302;2022-11-18T07:58:38;3.95;;;2.42;;
29732;SDS011;16643;43.158;25.302;2022-11-18T08:01:17;3.90;;;2.33;;
29732;SDS011;16643;43.158;25.302;2022-11-18T08:03:45;5.20;;;2.88;;
29732;SDS011;16643;43.158;25.302;2022-11-18T08:06:12;6.03;;;2.72;;
29732;SDS011;16643;43.158;25.302;2022-11-18T08:08:39;4.35;;;2.30;;
29732;SDS011;16643;43.158;25.302;2022-11-18T08:11:07;7.88;;;2.40;;
29732;SDS011;16643;43.158;25.302;2022-11-18T08:13:34;3.45;;;2.05;;
29732;SDS011;16643;43.158;25.302;2022-11-18T08:16:00;8.43;;;3.20;;
29732;SDS011;16643;43.158;25.302;2022-11-18T08:18:27;4.28;;;2.38;;
29732;SDS011;16643;43.158;25.302;2022-11-18T08:20:54;4.25;;;2.47;;
29732;SDS011;16643;43.158;25.302;2022-11-18T08:23:19;4.15;;;2.60;;
29732;SDS011;16643;43.158;25.302;2022-11-18T08:25:46;9.57;;;5.03;;
29732;SDS011;16643;43.158;25.302;2022-11-18T08:28:12;6.22;;;3.45;;
29732;SDS011;16643;43.158;25.302;2022-11-18T08:30:39;4.75;;;2.70;;
29732;SDS011;16643;43.158;25.302;2022-11-18T08:33:05;5.30;;;2.58;;
29732;SDS011;16643;43.158;25.302;2022-11-18T08:35:31;5.43;;;2.70;;
29732;SDS011;16643;43.158;25.302;2022-11-18T08:37:58;5.35;;;3.13;;
29732;SDS011;16643;43.158;25.302;2022-11-18T08:40:24;3.72;;;2.22;;
29732;SDS011;16643;43.158;25.302;2022-11-18T08:42:50;7.93;;;2.20;;
29732;SDS011;16643;43.158;25.302;2022-11-18T08:45:16;6.38;;;2.55;;
29732;SDS011;16643;43.158;25.302;2022-11-18T08:47:42;4.97;;;2.00;;
29732;SDS011;16643;43.158;25.302;2022-11-18T08:50:09;4.05;;;2.05;;
29732;SDS011;16643;43.158;25.302;2022-11-18T08:52:37;4.88;;;2.40;;
29732;SDS011;16643;43.158;25.302;2022-11-18T08:55:03;5.57;;;2.20;;
29732;SDS011;16643;43.158;25.302;2022-11-18T08:57:29;4.75;;;2.45;;
29732;SDS011;16643;43.158;25.302;2022-11-18T08:59:55;3.55;;;2.15;;
29732;SDS011;16643;43.158;25.302;2022-11-18T09:02:21;5.07;;;2.30;;
29732;SDS011;16643;43.158;25.302;2022-11-18T09:04:48;3.50;;;1.83;;
29732;SDS011;16643;43.158;25.302;2022-11-18T09:07:20;3.88;;;1.73;;
29732;SDS011;16643;43.158;25.302;2022-11-18T09:09:46;2.17;;;1.70;;
29732;SDS011;16643;43.158;25.302;2022-11-18T09:12:12;4.20;;;2.05;;
29732;SDS011;16643;43.158;25.302;2022-11-18T09:14:45;3.47;;;1.70;;
29732;SDS011;16643;43.158;25.302;2022-11-18T09:17:11;3.65;;;2.30;;
29732;SDS011;16643;43.158;25.302;2022-11-18T09:19:38;4.40;;;2.37;;
29732;SDS011;16643;43.158;25.302;2022-11-18T09:22:04;6.07;;;1.98;;
29732;SDS011;16643;43.158;25.302;2022-11-18T09:24:31;4.25;;;1.80;;
29732;SDS011;16643;43.158;25.302;2022-11-18T09:26:56;2.53;;;1.67;;
29732;SDS011;16643;43.158;25.302;2022-11-18T09:29:22;3.55;;;1.52;;
29732;SDS011;16643;43.158;25.302;2022-11-18T09:31:50;3.47;;;1.80;;
29732;SDS011;16643;43.158;25.302;2022-11-18T09:34:19;3.22;;;1.60;;
29732;SDS011;16643;43.158;25.302;2022-11-18T09:36:45;4.10;;;1.90;;
29732;SDS011;16643;43.158;25.302;2022-11-18T09:39:11;3.00;;;1.60;;
29732;SDS011;16643;43.158;25.302;2022-11-18T09:41:47;3.38;;;1.48;;
29732;SDS011;16643;43.158;25.302;2022-11-18T09:49:36;3.83;;;1.40;;
29732;SDS011;16643;43.158;25.302;2022-11-18T09:52:09;3.47;;;1.30;;
29732;SDS011;16643;43.158;25.302;2022-11-18T09:54:40;3.80;;;1.67;;
29732;SDS011;16643;43.158;25.302;2022-11-18T09:57:13;5.30;;;2.13;;
29732;SDS011;16643;43.158;25.302;2022-11-18T09:59:40;2.30;;;1.08;;
29732;SDS011;16643;43.158;25.302;2022-11-18T10:02:16;4.18;;;1.58;;
29732;SDS011;16643;43.158;25.302;2022-11-18T10:04:53;1.92;;;1.27;;
29732;SDS011;16643;43.158;25.302;2022-11-18T10:10:41;2.38;;;1.20;;
29732;SDS011;16643;43.158;25.302;2022-11-18T10:13:22;1.88;;;1.20;;
29732;SDS011;16643;43.158;25.302;2022-11-18T10:19:03;3.30;;;1.30;;
29732;SDS011;16643;43.158;25.302;2022-11-18T10:26:43;2.38;;;1.15;;
29732;SDS011;16643;43.158;25.302;2022-11-18T10:29:08;2.03;;;1.00;;
29732;SDS011;16643;43.158;25.302;2022-11-18T10:34:53;3.50;;;1.33;;
29732;SDS011;16643;43.158;25.302;2022-11-18T10:39:51;3.05;;;1.10;;
29732;SDS011;16643;43.158;25.302;2022-11-18T10:42:29;1.75;;;0.93;;
29732;SDS011;16643;43.158;25.302;2022-11-18T10:50:46;2.78;;;1.02;;
29732;SDS011;16643;43.158;25.302;2022-11-18T10:53:47;2.40;;;1.27;;
29732;SDS011;16643;43.158;25.302;2022-11-18T10:56:08;1.42;;;1.02;;
29732;SDS011;16643;43.158;25.302;2022-11-18T10:58:41;1.35;;;1.00;;
29732;SDS011;16643;43.158;25.302;2022-11-18T11:01:22;2.00;;;0.90;;
29732;SDS011;16643;43.158;25.302;2022-11-18T11:04:31;5.00;;;1.65;;
29732;SDS011;16643;43.158;25.302;2022-11-18T11:06:44;1.50;;;0.80;;
29732;SDS011;16643;43.158;25.302;2022-11-18T11:11:39;2.80;;;1.20;;
29732;SDS011;16643;43.158;25.302;2022-11-18T11:14:31;3.83;;;1.10;;
29732;SDS011;16643;43.158;25.302;2022-11-18T11:17:19;1.90;;;1.20;;
29732;SDS011;16643;43.158;25.302;2022-11-18T11:22:31;1.73;;;0.98;;
29732;SDS011;16643;43.158;25.302;2022-11-18T11:24:57;2.92;;;1.10;;
29732;SDS011;16643;43.158;25.302;2022-11-18T11:27:38;1.98;;;0.98;;
29732;SDS011;16643;43.158;25.302;2022-11-18T11:30:22;6.18;;;1.23;;
29732;SDS011;16643;43.158;25.302;2022-11-18T11:32:56;1.55;;;1.00;;
29732;SDS011;16643;43.158;25.302;2022-11-18T11:36:08;1.38;;;1.00;;
29732;SDS011;16643;43.158;25.302;2022-11-18T11:45:18;5.60;;;1.65;;
29732;SDS011;16643;43.158;25.302;2022-11-18T11:50:51;4.22;;;1.63;;
29732;SDS011;16643;43.158;25.302;2022-11-18T11:59:07;6.25;;;1.92;;
29732;SDS011;16643;43.158;25.302;2022-11-18T12:04:49;8.23;;;3.33;;
29732;SDS011;16643;43.158;25.302;2022-11-18T12:07:18;4.43;;;2.50;;
29732;SDS011;16643;43.158;25.302;2022-11-18T12:10:01;4.93;;;3.10;;
29732;SDS011;16643;43.158;25.302;2022-11-18T12:15:00;3.22;;;2.20;;
29732;SDS011;16643;43.158;25.302;2022-11-18T12:17:44;4.60;;;2.78;;
29732;SDS011;16643;43.158;25.302;2022-11-18T12:20:34;5.25;;;1.92;;
29732;SDS011;16643;43.158;25.302;2022-11-18T12:23:08;3.92;;;2.00;;
29732;SDS011;16643;43.158;25.302;2022-11-18T12:26:09;4.82;;;1.90;;
29732;SDS011;16643;43.158;25.302;2022-11-18T12:28:42;4.10;;;1.80;;
29732;SDS011;16643;43.158;25.302;2022-11-18T12:33:47;4.40;;;1.80;;
29732;SDS011;16643;43.158;25.302;2022-11-18T12:36:24;4.90;;;1.75;;
29732;SDS011;16643;43.158;25.302;2022-11-18T12:38:55;5.07;;;3.00;;
29732;SDS011;16643;43.158;25.302;2022-11-18T12:44:25;5.85;;;2.45;;
29732;SDS011;16643;43.158;25.302;2022-11-18T12:46:53;4.53;;;2.47;;
29732;SDS011;16643;43.158;25.302;2022-11-18T12:56:56;4.28;;;2.15;;
29732;SDS011;16643;43.158;25.302;2022-11-18T12:59:29;3.88;;;1.88;;
29732;SDS011;16643;43.158;25.302;2022-11-18T13:04:28;3.97;;;1.92;;
29732;SDS011;16643;43.158;25.302;2022-11-18T13:06:54;5.88;;;2.60;;
29732;SDS011;16643;43.158;25.302;2022-11-18T13:09:24;5.78;;;2.70;;
29732;SDS011;16643;43.158;25.302;2022-11-18T13:11:57;4.00;;;2.53;;
29732;SDS011;16643;43.158;25.302;2022-11-18T13:14:29;6.05;;;2.65;;
29732;SDS011;16643;43.158;25.302;2022-11-18T13:17:24;5.50;;;2.58;;
29732;SDS011;16643;43.158;25.302;2022-11-18T13:20:31;6.07;;;2.58;;
29732;SDS011;16643;43.158;25.302;2022-11-18T13:23:17;7.25;;;2.33;;
29732;SDS011;16643;43.158;25.302;2022-11-18T13:26:14;4.57;;;2.50;;
29732;SDS011;16643;43.158;25.302;2022-11-18T13:34:22;4.45;;;2.10;;
29732;SDS011;16643;43.158;25.302;2022-11-18T13:36:52;4.50;;;2.40;;
29732;SDS011;16643;43.158;25.302;2022-11-18T13:39:23;4.18;;;2.17;;
29732;SDS011;16643;43.158;25.302;2022-11-18T13:42:00;4.03;;;2.30;;
29732;SDS011;16643;43.158;25.302;2022-11-18T13:44:42;4.22;;;1.85;;
29732;SDS011;16643;43.158;25.302;2022-11-18T13:56:02;5.55;;;2.90;;
29732;SDS011;16643;43.158;25.302;2022-11-18T14:01:26;5.63;;;2.78;;
29732;SDS011;16643;43.158;25.302;2022-11-18T14:06:31;5.57;;;3.10;;
29732;SDS011;16643;43.158;25.302;2022-11-18T14:14:34;7.25;;;3.80;;
29732;SDS011;16643;43.158;25.302;2022-11-18T14:17:03;4.57;;;3.30;;
29732;SDS011;16643;43.158;25.302;2022-11-18T14:19:48;8.63;;;3.55;;
29732;SDS011;16643;43.158;25.302;2022-11-18T14:22:19;6.10;;;3.80;;
29732;SDS011;16643;43.158;25.302;2022-11-18T14:24:57;6.93;;;3.83;;
29732;SDS011;16643;43.158;25.302;2022-11-18T14:27:32;6.75;;;3.80;;
29732;SDS011;16643;43.158;25.302;2022-11-18T14:35:35;7.60;;;4.50;;
29732;SDS011;16643;43.158;25.302;2022-11-18T14:38:48;6.32;;;3.53;;
29732;SDS011;16643;43.158;25.302;2022-11-18T14:41:15;10.05;;;4.47;;
29732;SDS011;16643;43.158;25.302;2022-11-18T14:46:27;7.00;;;3.88;;
29732;SDS011;16643;43.158;25.302;2022-11-18T14:48:53;10.93;;;4.97;;
29732;SDS011;16643;43.158;25.302;2022-11-18T14:51:19;11.20;;;5.05;;
29732;SDS011;16643;43.158;25.302;2022-11-18T14:53:44;18.15;;;9.98;;
29732;SDS011;16643;43.158;25.302;2022-11-18T14:56:11;13.45;;;8.27;;
29732;SDS011;16643;43.158;25.302;2022-11-18T15:01:23;13.25;;;8.50;;
29732;SDS011;16643;43.158;25.302;2022-11-18T15:03:51;12.63;;;8.70;;
29732;SDS011;16643;43.158;25.302;2022-11-18T15:06:17;6.82;;;5.05;;
29732;SDS011;16643;43.158;25.302;2022-11-18T15:08:45;13.25;;;6.97;;
29732;SDS011;16643;43.158;25.302;2022-11-18T15:11:12;27.40;;;14.38;;
29732;SDS011;16643;43.158;25.302;2022-11-18T15:13:39;42.88;;;18.42;;
29732;SDS011;16643;43.158;25.302;2022-11-18T15:16:18;52.25;;;22.17;;
29732;SDS011;16643;43.158;25.302;2022-11-18T15:18:47;31.80;;;15.73;;
29732;SDS011;16643;43.158;25.302;2022-11-18T15:21:15;12.50;;;6.25;;
29732;SDS011;16643;43.158;25.302;2022-11-18T15:23:41;18.10;;;8.82;;
29732;SDS011;16643;43.158;25.302;2022-11-18T15:28:50;12.75;;;6.35;;
29732;SDS011;16643;43.158;25.302;2022-11-18T15:31:17;12.93;;;7.35;;
29732;SDS011;16643;43.158;25.302;2022-11-18T15:33:44;10.88;;;6.70;;
29732;SDS011;16643;43.158;25.302;2022-11-18T15:36:11;10.40;;;5.43;;
29732;SDS011;16643;43.158;25.302;2022-11-18T15:38:38;8.63;;;5.63;;
29732;SDS011;16643;43.158;25.302;2022-11-18T15:41:05;8.38;;;5.00;;
29732;SDS011;16643;43.158;25.302;2022-11-18T15:43:31;9.18;;;5.78;;
29732;SDS011;16643;43.158;25.302;2022-11-18T15:45:57;10.45;;;5.65;;
29732;SDS011;16643;43.158;25.302;2022-11-18T15:48:23;14.15;;;7.15;;
29732;SDS011;16643;43.158;25.302;2022-11-18T15:50:48;10.48;;;6.85;;
29732;SDS011;16643;43.158;25.302;2022-11-18T15:53:14;7.32;;;4.70;;
29732;SDS011;16643;43.158;25.302;2022-11-18T15:55:40;10.60;;;6.10;;
29732;SDS011;16643;43.158;25.302;2022-11-18T15:58:05;9.27;;;6.97;;
29732;SDS011;16643;43.158;25.302;2022-11-18T16:00:31;9.20;;;6.97;;
29732;SDS011;16643;43.158;25.302;2022-11-18T16:02:57;11.88;;;7.18;;
29732;SDS011;16643;43.158;25.302;2022-11-18T16:05:22;12.25;;;6.72;;
29732;SDS011;16643;43.158;25.302;2022-11-18T16:07:48;9.65;;;6.65;;
29732;SDS011;16643;43.158;25.302;2022-11-18T16:10:13;10.18;;;5.18;;
29732;SDS011;16643;43.158;25.302;2022-11-18T16:12:58;10.90;;;5.82;;
29732;SDS011;16643;43.158;25.302;2022-11-18T16:15:24;8.27;;;5.93;;
29732;SDS011;16643;43.158;25.302;2022-11-18T16:18:08;8.77;;;5.57;;
29732;SDS011;16643;43.158;25.302;2022-11-18T16:20:34;9.30;;;4.97;;
29732;SDS011;16643;43.158;25.302;2022-11-18T16:23:00;11.45;;;6.68;;
29732;SDS011;16643;43.158;25.302;2022-11-18T16:25:26;12.73;;;7.55;;
29732;SDS011;16643;43.158;25.302;2022-11-18T16:27:52;14.05;;;6.60;;
29732;SDS011;16643;43.158;25.302;2022-11-18T16:30:19;11.23;;;6.20;;
29732;SDS011;16643;43.158;25.302;2022-11-18T16:33:03;8.73;;;4.68;;
29732;SDS011;16643;43.158;25.302;2022-11-18T16:35:29;7.63;;;4.80;;
29732;SDS011;16643;43.158;25.302;2022-11-18T16:37:55;6.20;;;4.65;;
29732;SDS011;16643;43.158;25.302;2022-11-18T16:40:20;13.38;;;5.32;;
29732;SDS011;16643;43.158;25.302;2022-11-18T16:42:49;8.77;;;4.95;;
29732;SDS011;16643;43.158;25.302;2022-11-18T16:45:16;9.93;;;4.53;;
29732;SDS011;16643;43.158;25.302;2022-11-18T16:47:42;7.55;;;4.45;;
29732;SDS011;16643;43.158;25.302;2022-11-18T16:50:09;7.32;;;3.95;;
29732;SDS011;16643;43.158;25.302;2022-11-18T16:52:35;5.78;;;3.83;;
29732;SDS011;16643;43.158;25.302;2022-11-18T16:55:01;6.93;;;3.55;;
29732;SDS011;16643;43.158;25.302;2022-11-18T16:57:26;8.15;;;3.83;;
29732;SDS011;16643;43.158;25.302;2022-11-18T16:59:52;7.18;;;4.15;;
29732;SDS011;16643;43.158;25.302;2022-11-18T17:02:18;5.32;;;3.60;;
29732;SDS011;16643;43.158;25.302;2022-11-18T17:04:44;6.13;;;4.28;;
29732;SDS011;16643;43.158;25.302;2022-11-18T17:07:10;6.80;;;4.13;;
29732;SDS011;16643;43.158;25.302;2022-11-18T17:09:37;6.93;;;4.28;;
29732;SDS011;16643;43.158;25.302;2022-11-18T17:12:02;8.27;;;4.72;;
29732;SDS011;16643;43.158;25.302;2022-11-18T17:14:28;7.47;;;4.63;;
29732;SDS011;16643;43.158;25.302;2022-11-18T17:16:55;8.77;;;4.75;;
29732;SDS011;16643;43.158;25.302;2022-11-18T17:19:21;10.15;;;5.30;;
29732;SDS011;16643;43.158;25.302;2022-11-18T17:21:48;10.07;;;5.55;;
29732;SDS011;16643;43.158;25.302;2022-11-18T17:24:16;10.23;;;6.43;;